Aeroporto :
LOGIN :

Iscrizione | Disclaimer

   EN    FR    IT 

 










Sommario :    VFR   VFR Marginale   IFR   IFR Intensivo   IFR Molto Intensivo
Visibilità : 
Base nubi : 
>= 8 km
>= 3000ft
5 / 8 km
1000 / 3000 ft
1500m / 5 km
500 / 1000 ft
800 / 1500m
200 / 500 ft
< 800m
< 200 ft
Simboli :   Temporali  Nebbia  Neve Forte  Precipitazioni Forti  Vento > 20 kt
SIGMETs :   Varie  Temporali  Ghiacco  Turbolenza  Onda orograficha  Ceneri Vulcaniche






- Altitudine del aeroporto : 512 ft
- Codice IATA : URO


LFOP - Rouen Vallée de Seine

ULTIMO METAR :
  • 271500Z AUTO 32018KT 9999 BKN023 OVC031 06/02 Q1004 NOSIG

METARs OBSOLETI :
  • 271430Z AUTO 32020G33KT 9999 OVC023 06/02 Q1003 BECMG 31013KT
  • 271400Z AUTO 32022G36KT 300V360 9999 BKN021 OVC029 06/02 Q1001 BECMG 31013KT
  • 271330Z AUTO 32020KT 290V350 9999 OVC019 06/03 Q1000 TEMPO 33020G35KT
  • 271300Z AUTO 32022G35KT 9999 OVC016 06/03 Q0998 NOSIG
  • 271230Z AUTO 32021G34KT 9999 OVC013 05/04 Q0997 BECMG BKN020

TAF TAF LFOP
Valido dal 27 a 12 ore il 28 a 12 ore UTC


271100Z 2712/2812 33020G35KT 9999 OVC010
TEMPO 2712/2713 33030G45KT
BECMG 2712/2714 BKN020
BECMG 2715/2718 31013KT
BECMG 2718/2720 24005KT
BECMG 2809/2811 17015KT RA OVC012
ATIS : +33 2 35 80 80 34
Met : +33 2 32 86 52 80



MetMap, La meteo Aeronautica in un colpo d'occhio ! - Copyright ORBIFLY Dicembre 2007 - Disclaimer

ORBIFLY MET'MAP TEAM :

Programmazione e sviluppo : Alexandra Zaïnal
Concezione : Baudouin d'Aumeries
Aiuto per la programmazione : Marc-Olivier Méhu
Supporto tecnico e logistico : Manuel Goepfert
Aiuto per la traduzione : Arnaldo La Scala

Contatto : metmap@orbifly.com




FONTI E CREDITI :

   NOAA